• Join FlightAware (Why Join?)
  • Login
  • US Flag 
12:00PM EST


 

Airport Tracker/Info


-or-


 

Live Flight TrackerFlight Track Log ✈ SKW6528 ✈ 19-Apr-2013 ✈ KBFL - KDEN

Flight Track Log - Related Links

Times and Time Zones

All times are in EDT time to prevent confusion due to time zone crossing. See the SKW6528 flight status page for this flight to view local times or setup timezone preferences in your user account.

Time Position Orientation Groundspeed Altitude Reporting Facility
EDT Latitude Longitude Course Direction KTS MPH feet Rate Location/Type
10:00AM 35.4561 -119.1664 141° Southeast 226 260 4,400  Level Los Angeles Center
10:01AM 35.3933 -119.1903 197° South 271 312 6,900 2,280 Climbing Los Angeles Center
10:02AM 35.1074 -118.6726 136° Southeast  Level FlightAware Approximate
10:02AM 35.3439 -119.1236 132° Southeast 268 308 9,100  Level Los Angeles Center
10:03AM 35.0253 -118.5768 136° Southeast  Level FlightAware Approximate
10:03AM 35.2908 -119.0425 129° Southeast 288 331 11,200  Level Los Angeles Center
10:04AM 34.9464 -118.4780 129° Southeast  Level FlightAware Approximate
10:04AM 35.2336 -118.9567 129° Southeast 319 367 12,700  Level Los Angeles Center
10:05AM 34.8719 -118.3736 132° Southeast  Level FlightAware Approximate
10:05AM 35.1725 -118.8658 129° Southeast 344 396 14,200  Level Los Angeles Center
10:06AM 34.7921 -118.2755 141° Southeast  Level FlightAware Approximate
10:06AM 35.0953 -118.7511 129° Southeast 361 415 16,200  Level Los Angeles Center
10:08AM 35.0303 -118.6533 129° Southeast 369 425 17,600 1,200 Climbing Los Angeles Center
10:09AM 34.9622 -118.5531 130° Southeast 382 440 18,700 1,140 Climbing Los Angeles Center
10:10AM 34.9006 -118.4625 130° Southeast 387 445 20,000 1,260 Climbing Los Angeles Center
10:11AM 34.8175 -118.3397 129° Southeast 394 453 21,300 1,140 Climbing Los Angeles Center
10:12AM 34.7464 -118.2350 130° Southeast 401 461 22,400 1,020 Climbing Los Angeles Center
10:13AM 34.6736 -118.1294 130° Southeast 410 472 23,500 960 Climbing Los Angeles Center
10:14AM 34.6389 -118.0050 109° East 410 472 24,400 900 Climbing Los Angeles Center
10:15AM 34.6525 -117.8725 83° East 398 458 25,400 840 Climbing Los Angeles Center
10:16AM 34.6667 -117.7406 83° East 397 457 26,200 720 Climbing Los Angeles Center
10:17AM 34.6803 -117.6039 83° East 409 471 26,900 780 Climbing Los Angeles Center
10:18AM 34.7186 -117.4525 73° East 400 460 27,900 780 Climbing Los Angeles Center
10:19AM 34.7836 -117.3483 53° Northeast 390 449 28,700 600 Climbing Los Angeles Center
10:20AM 34.8606 -117.2194 54° Northeast 395 455 29,300 480 Climbing Los Angeles Center
10:21AM 34.9267 -117.1108 53° Northeast 400 460 29,800 480 Climbing Los Angeles Center
10:22AM 34.9922 -117.0022 54° Northeast 400 460 30,300 480 Climbing Los Angeles Center
10:23AM 35.0728 -116.8703 53° Northeast 407 468 30,900 600 Climbing Los Angeles Center
10:24AM 35.1392 -116.7603 54° Northeast 406 467 31,600 660 Climbing Los Angeles Center
10:25AM 35.2036 -116.6514 54° Northeast 400 460 32,300 660 Climbing Los Angeles Center
10:26AM 35.2678 -116.5467 53° Northeast 390 449 33,000 300 Climbing Los Angeles Center
10:27AM 35.3294 -116.4408 54° Northeast 384 442 33,000  Level Los Angeles Center
10:28AM 35.3933 -116.3319 54° Northeast 392 451 33,000  Level Los Angeles Center
10:29AM 35.4592 -116.2206 54° Northeast 400 460 33,000  Level Los Angeles Center
10:30AM 35.5381 -116.0858 54° Northeast 405 466 33,000  Level Los Angeles Center
10:31AM 35.6058 -115.9719 54° Northeast 411 473 33,000  Level Los Angeles Center
10:32AM 35.6789 -115.8506 53° Northeast 412 474 33,000  Level Los Angeles Center
10:33AM 35.7453 -115.7394 54° Northeast 406 467 33,000  Level Los Angeles Center
10:34AM 35.8119 -115.6256 54° Northeast 408 470 33,000  Level Los Angeles Center
10:35AM 35.8781 -115.5111 54° Northeast 412 474 33,000  Level Los Angeles Center
10:36AM 35.9433 -115.3975 55° Northeast 410 472 33,000  Level Los Angeles Center
10:37AM 36.0083 -115.2850 54° Northeast 408 470 33,000  Level Los Angeles Center
10:38AM 36.0842 -115.1475 56° Northeast 407 468 33,000  Level Los Angeles Center
10:40AM 36.1242 -115.0133 70° East 419 482 33,000  Level Los Angeles Center
10:41AM 36.1653 -114.8800 69° East 418 481 33,000  Level Los Angeles Center
10:42AM 36.2061 -114.7461 69° East 418 481 33,000  Level Los Angeles Center
10:43AM 36.2475 -114.6119 69° East 418 481 33,000  Level Los Angeles Center
10:44AM 36.2881 -114.4753 70° East 422 486 33,000  Level Los Angeles Center
10:45AM 36.3289 -114.3400 69° East 421 484 33,000  Level Los Angeles Center
10:46AM 36.3786 -114.1764 69° East 423 487 33,000  Level Los Angeles Center
10:47AM 36.4247 -114.0425 67° East 423 487 33,000  Level Los Angeles Center
10:48AM 36.4714 -113.9094 66° East 422 486 33,000  Level Los Angeles Center
10:49AM 36.5219 -113.7656 66° East 423 487 33,000  Level Los Angeles Center
10:50AM 36.5686 -113.6303 67° East 425 489 33,000  Level Los Angeles Center
10:51AM 36.6150 -113.4958 67° East 426 490 33,000  Level Los Angeles Center
10:52AM 36.6608 -113.3617 67° East 424 488 33,000  Level Los Angeles Center
10:53AM 36.7072 -113.2253 67° East 427 491 33,000  Level Los Angeles Center
10:54AM 36.7528 -113.0908 67° East 425 489 33,000  Level Los Angeles Center
10:55AM 36.7997 -112.9553 67° East 427 491 33,000  Level Los Angeles Center
10:56AM 36.8544 -112.7914 67° East 429 494 33,000  Level Los Angeles Center
10:57AM 36.9014 -112.6542 67° East 432 497 33,000  Level Los Angeles Center
10:58AM 36.9464 -112.5175 68° East 430 495 33,000  Level Los Angeles Center
10:59AM 36.9925 -112.3803 67° East 431 496 33,000  Level Los Angeles Center
11:00AM 37.0381 -112.2411 68° East 434 499 33,000  Level Los Angeles Center
11:01AM 37.0836 -112.1025 68° East 434 499 33,000  Level Los Angeles Center
11:02AM 37.1217 -111.9906 67° East 438 504 33,000  Level Denver Center
11:02AM 37.1381 -111.9364 69° East 433 498 33,000  Level Los Angeles Center
11:03AM 37.1675 -111.8519 66° East 436 502 33,000  Level Denver Center
11:04AM 37.2133 -111.7139 67° East 433 498 33,000  Level Denver Center
11:05AM 37.2550 -111.5775 69° East 426 490 33,000  Level Denver Center
11:06AM 37.2992 -111.4381 68° East 432 497 33,000  Level Denver Center
11:07AM 37.3444 -111.2981 68° East 434 499 33,000  Level Denver Center
11:08AM 37.3978 -111.1303 68° East 433 498 33,000  Level Denver Center
11:09AM 37.4425 -110.9886 68° East 437 503 33,000  Level Denver Center
11:10AM 37.4861 -110.8483 69° East 434 499 33,000  Level Denver Center
11:11AM 37.5322 -110.7067 68° East 438 504 33,000  Level Denver Center
11:12AM 37.5750 -110.5636 69° East 438 504 33,000  Level Denver Center
11:13AM 37.6278 -110.3981 68° East 440 506 33,000  Level Denver Center
11:14AM 37.6697 -110.2594 69° East 442 509 33,000  Level Denver Center
11:15AM 37.7189 -110.0981 69° East 441 507 33,000  Level Denver Center
11:16AM 37.7617 -109.9581 69° East 443 510 33,000  Level Denver Center
11:17AM 37.8119 -109.7956 69° East 444 511 33,000  Level Denver Center
11:18AM 37.8531 -109.6572 69° East 442 509 33,000  Level Denver Center
11:19AM 37.9022 -109.4931 69° East 444 511 33,000  Level Denver Center
11:20AM 37.9444 -109.3528 69° East 444 511 33,000  Level Denver Center
11:21AM 37.9861 -109.2119 69° East 445 512 33,000  Level Denver Center
11:22AM 38.0350 -109.0456 69° East 449 517 33,000  Level Denver Center
11:23AM 38.0758 -108.9047 70° East 451 519 33,000  Level Denver Center
11:24AM 38.1286 -108.7406 68° East 451 519 33,000  Level Denver Center
11:25AM 38.1833 -108.6078 62° Northeast 446 513 33,000  Level Denver Center
11:27AM 38.2464 -108.4519 63° Northeast 446 513 33,000  Level Denver Center
11:28AM 38.3006 -108.3197 62° Northeast 444 511 33,000  Level Denver Center
11:29AM 38.3636 -108.1644 63° Northeast 442 509 33,000  Level Denver Center
11:30AM 38.4172 -108.0292 63° Northeast 446 513 33,000  Level Denver Center
11:31AM 38.4803 -107.8725 63° Northeast 445 512 33,000  Level Denver Center
11:32AM 38.5331 -107.7389 63° Northeast 443 510 33,000  Level Denver Center
11:33AM 38.5947 -107.5814 63° Northeast 443 510 33,000  Level Denver Center
11:34AM 38.6492 -107.4450 63° Northeast 448 516 33,000  Level Denver Center
11:35AM 38.7097 -107.2886 64° Northeast 443 510 33,000 -300 Level Denver Center
11:36AM 38.7617 -107.1564 63° Northeast 444 511 32,400 -780 Descending Denver Center
11:37AM 38.8156 -107.0164 64° Northeast 441 507 31,400 -1,020 Descending Denver Center
11:38AM 38.8703 -106.8758 63° Northeast 442 509 30,300 -1,200 Descending Denver Center
11:39AM 38.9364 -106.7036 64° Northeast 444 511 29,000 -1,200 Descending Denver Center
11:40AM 38.9889 -106.5647 64° Northeast 451 519 27,900 -1,020 Descending Denver Center
11:41AM 39.0519 -106.4008 64° Northeast 457 526 27,000 -540 Descending Denver Center
11:42AM 39.1042 -106.2625 64° Northeast 452 520 26,800 -900 Descending Denver Center
11:43AM 39.1586 -106.1169 64° Northeast 436 502 25,200 -1,560 Descending Denver Center
11:44AM 39.2033 -105.9933 65° Northeast 384 442 23,600 -1,500 Descending Denver Center
11:45AM 39.2492 -105.8731 64° Northeast 373 429 22,100 -1,500 Descending Denver Center
11:46AM 39.2936 -105.7544 64° Northeast 366 421 20,600 -1,500 Descending Denver Center
11:47AM 39.3414 -105.6244 65° Northeast 345 397 19,000 -1,440 Descending Denver Center
11:48AM 39.3808 -105.5158 65° Northeast 334 384 17,700 -1,140 Descending Denver Center
11:49AM 39.3986 -105.3919 79° East 362 417 16,700 -1,080 Descending Denver Center
11:50AM 39.4053 -105.2547 86° East 361 415 15,500 -1,140 Descending Denver Center
11:51AM 39.4114 -105.1231 87° East 369 425 14,400 -1,020 Descending Denver Center
11:52AM 39.4169 -104.9808 87° East 367 422 13,400 -840 Descending Denver Center
11:53AM 39.4300 -104.8708 81° East 302 348 12,700 -1,020 Descending Denver Center
11:54AM 39.4733 -104.7883 56° Northeast 255 293 11,300 -1,440 Descending Denver Center
11:55AM 39.5317 -104.7433 31° Northeast 244 281 9,800 -1,140 Descending Denver Center
11:57AM 39.5964 -104.6947 30° Northeast 250 288 9,000 -420 Descending Denver Center
11:58AM 39.6550 -104.6639 22° Northeast 232 267 9,000 -300 Level Denver Center
11:59AM 39.7156 -104.6603 North 221 254 8,500 -540 Descending Denver Center